createdAt,value
2023-05-22T00:02:22.846Z,18.65
2023-05-22T00:04:51.145Z,16.80
2023-05-22T00:07:18.583Z,11.95
2023-05-22T00:09:46.556Z,10.15
2023-05-22T00:12:13.981Z,8.32
2023-05-22T00:14:41.418Z,10.50
2023-05-22T00:17:10.310Z,13.15
2023-05-22T00:19:38.297Z,10.82
2023-05-22T00:22:06.114Z,16.75
2023-05-22T00:24:33.498Z,11.68
2023-05-22T00:27:00.951Z,10.43
2023-05-22T00:29:28.384Z,10.57
2023-05-22T00:31:57.521Z,9.55
2023-05-22T00:34:25.030Z,8.27
2023-05-22T00:36:52.639Z,8.55
2023-05-22T00:39:20.034Z,10.38
2023-05-22T00:41:47.667Z,11.40
2023-05-22T00:44:15.369Z,10.63
2023-05-22T00:46:43.317Z,7.95
2023-05-22T00:49:10.733Z,9.85
2023-05-22T00:51:38.215Z,15.52
2023-05-22T00:54:06.241Z,8.98
2023-05-22T00:56:34.135Z,10.27
2023-05-22T00:59:01.659Z,10.98
2023-05-22T01:01:33.608Z,10.35
2023-05-22T01:04:02.026Z,8.65
2023-05-22T01:06:32.226Z,9.32
2023-05-22T01:08:59.799Z,9.52
2023-05-22T01:11:42.119Z,13.02
2023-05-22T01:14:29.739Z,7.78
2023-05-22T01:17:22.647Z,13.80
2023-05-22T01:20:11.201Z,12.43
2023-05-22T01:23:07.055Z,11.20
2023-05-22T01:26:08.412Z,9.95
2023-05-22T01:28:57.640Z,8.27
2023-05-22T01:31:27.108Z,8.55
2023-05-22T01:34:02.161Z,8.32
2023-05-22T01:36:32.541Z,11.48
2023-05-22T01:39:01.678Z,11.80
2023-05-22T01:41:34.141Z,11.45
2023-05-22T01:44:02.581Z,10.05
2023-05-22T01:46:31.240Z,8.52
2023-05-22T01:48:59.696Z,11.32
2023-05-22T01:51:45.529Z,13.55
2023-05-22T01:54:42.224Z,15.80
2023-05-22T01:57:51.411Z,7.93
2023-05-22T02:00:22.434Z,10.52
2023-05-22T02:03:01.389Z,10.07
2023-05-22T02:05:31.289Z,10.50
2023-05-22T02:08:00.946Z,13.20
2023-05-22T02:10:29.439Z,10.73
2023-05-22T02:12:57.360Z,9.70
2023-05-22T02:15:24.818Z,9.25
2023-05-22T02:17:53.491Z,11.45
2023-05-22T02:20:21.283Z,10.98
2023-05-22T02:22:48.930Z,10.35
2023-05-22T02:25:17.647Z,10.48
2023-05-22T02:27:47.529Z,13.15
2023-05-22T02:30:15.912Z,10.48
2023-05-22T02:32:46.135Z,8.90
2023-05-22T02:35:13.633Z,12.38
2023-05-22T02:37:41.199Z,11.15
2023-05-22T02:40:10.782Z,9.70
2023-05-22T02:42:38.284Z,10.13
2023-05-22T02:45:07.007Z,10.73
2023-05-22T02:47:34.471Z,9.18
2023-05-22T02:50:02.027Z,8.15
2023-05-22T02:52:31.631Z,14.50
2023-05-22T02:54:59.077Z,11.20
2023-05-22T02:57:27.140Z,10.50
2023-05-22T02:59:54.607Z,12.40
2023-05-22T03:02:22.079Z,13.05
2023-05-22T03:04:49.489Z,9.30
2023-05-22T03:07:17.079Z,13.45
2023-05-22T03:09:44.673Z,10.75
2023-05-22T03:12:12.589Z,11.52
2023-05-22T03:14:40.296Z,10.90
2023-05-22T03:17:07.837Z,11.38
2023-05-22T03:19:35.466Z,10.43
2023-05-22T03:22:02.913Z,10.80
2023-05-22T03:24:31.482Z,9.20
2023-05-22T03:27:00.237Z,9.70
2023-05-22T03:29:37.142Z,9.45
2023-05-22T03:32:05.058Z,12.85
2023-05-22T03:34:32.913Z,9.27
2023-05-22T03:37:01.345Z,11.43
2023-05-22T03:39:28.857Z,13.85
2023-05-22T03:42:04.312Z,15.60
2023-05-22T03:44:31.772Z,13.50
2023-05-22T03:46:59.297Z,13.18
2023-05-22T03:49:26.834Z,11.32
2023-05-22T03:51:54.311Z,14.02
2023-05-22T03:54:22.112Z,11.82
2023-05-22T03:56:50.157Z,11.38
2023-05-22T03:59:17.652Z,13.13
2023-05-22T04:01:47.136Z,15.65
2023-05-22T04:04:16.556Z,11.30
2023-05-22T04:06:44.148Z,12.02
2023-05-22T04:09:13.678Z,14.07
2023-05-22T04:11:42.321Z,15.68
2023-05-22T04:14:10.249Z,13.95
2023-05-22T04:16:37.719Z,25.00
2023-05-22T04:19:05.992Z,16.63
2023-05-22T04:21:34.465Z,16.15
2023-05-22T04:24:07.300Z,22.17
2023-05-22T04:26:36.105Z,18.15
2023-05-22T04:29:04.098Z,18.42
2023-05-22T04:31:32.555Z,20.15
2023-05-22T04:34:00.357Z,21.63
2023-05-22T04:36:29.105Z,19.98
2023-05-22T04:38:57.116Z,16.13
2023-05-22T04:41:26.696Z,20.60
2023-05-22T04:43:54.797Z,19.00
2023-05-22T04:46:22.547Z,20.67
2023-05-22T04:48:51.017Z,19.55
2023-05-22T04:51:18.570Z,14.80
2023-05-22T04:53:46.398Z,33.17
2023-05-22T04:56:18.603Z,23.27
2023-05-22T04:58:53.915Z,23.52
2023-05-22T05:01:22.254Z,20.20
2023-05-22T05:03:49.723Z,22.25
2023-05-22T05:06:17.363Z,22.77
2023-05-22T05:08:46.650Z,30.25
2023-05-22T05:11:14.448Z,25.65
2023-05-22T05:13:43.006Z,19.58
2023-05-22T05:16:10.393Z,23.48
2023-05-22T05:18:38.232Z,18.67
2023-05-22T05:21:05.778Z,28.05
2023-05-22T05:23:33.289Z,21.98
2023-05-22T05:26:00.815Z,21.95
2023-05-22T05:28:28.888Z,31.02
2023-05-22T05:30:57.681Z,25.38
2023-05-22T05:33:43.700Z,21.40
2023-05-22T05:36:21.986Z,18.63
2023-05-22T05:38:49.696Z,21.73
2023-05-22T05:41:19.007Z,35.65
2023-05-22T05:43:48.089Z,25.67
2023-05-22T05:46:15.720Z,31.63
2023-05-22T05:48:43.926Z,20.25
2023-05-22T05:51:12.895Z,20.50
2023-05-22T05:53:43.123Z,23.35
2023-05-22T05:56:11.800Z,32.28
2023-05-22T05:58:39.351Z,25.30
2023-05-22T06:01:27.147Z,31.08
2023-05-22T06:03:56.382Z,24.58
2023-05-22T06:06:29.800Z,24.93
2023-05-22T06:09:17.212Z,28.90
2023-05-22T06:12:06.387Z,23.80
2023-05-22T06:14:33.951Z,31.60
2023-05-22T06:17:01.375Z,24.92
2023-05-22T06:19:29.001Z,18.65
2023-05-22T06:21:56.666Z,24.00
2023-05-22T06:24:24.672Z,22.17
2023-05-22T06:26:52.482Z,18.05
2023-05-22T06:29:20.750Z,15.32
2023-05-22T06:31:48.761Z,22.67
2023-05-22T06:34:19.317Z,15.18
2023-05-22T06:36:46.814Z,11.18
2023-05-22T06:39:15.266Z,13.23
2023-05-22T06:42:11.871Z,9.48
2023-05-22T06:45:08.631Z,15.63
2023-05-22T06:47:46.245Z,11.20
2023-05-22T06:50:14.196Z,10.95
2023-05-22T06:52:42.243Z,11.93
2023-05-22T06:55:11.924Z,7.70
2023-05-22T06:57:52.238Z,7.20
2023-05-22T07:00:36.786Z,20.02
2023-05-22T07:03:16.835Z,28.52
2023-05-22T07:06:02.373Z,20.65
2023-05-22T07:08:30.717Z,10.18
2023-05-22T07:10:59.222Z,15.45
2023-05-22T07:13:26.795Z,14.63
2023-05-22T07:15:54.329Z,8.68
2023-05-22T07:18:21.752Z,13.82
2023-05-22T07:20:49.369Z,13.23
2023-05-22T07:23:19.955Z,8.73
2023-05-22T07:25:47.518Z,8.27
2023-05-22T07:28:16.532Z,12.93
2023-05-22T07:30:57.358Z,7.68
2023-05-22T07:33:25.617Z,9.25
2023-05-22T07:35:53.815Z,9.73
2023-05-22T07:38:21.510Z,9.05
2023-05-22T07:40:56.874Z,9.73
2023-05-22T07:43:25.674Z,8.32
2023-05-22T07:45:54.198Z,8.57
2023-05-22T07:48:24.984Z,12.18
2023-05-22T07:50:52.507Z,7.43
2023-05-22T07:53:19.902Z,13.15
2023-05-22T07:55:51.012Z,8.88
2023-05-22T07:58:19.682Z,5.60
2023-05-22T08:00:47.925Z,7.28
2023-05-22T08:03:17.573Z,6.80
2023-05-22T08:05:46.404Z,11.95
2023-05-22T08:08:13.960Z,5.70
2023-05-22T08:10:58.194Z,10.48
2023-05-22T08:13:29.463Z,6.57
2023-05-22T08:16:00.382Z,7.47
2023-05-22T08:18:29.802Z,9.05
2023-05-22T08:20:57.693Z,5.72
2023-05-22T08:23:25.321Z,6.20
2023-05-22T08:25:52.740Z,6.47
2023-05-22T08:28:20.134Z,8.93
2023-05-22T08:30:47.742Z,9.20
2023-05-22T08:33:15.170Z,8.38
2023-05-22T08:35:42.582Z,13.95
2023-05-22T08:38:10.176Z,7.25
2023-05-22T08:40:40.264Z,6.35
2023-05-22T08:43:08.830Z,11.57
2023-05-22T08:45:36.375Z,9.30
2023-05-22T08:48:08.622Z,8.88
2023-05-22T08:50:43.360Z,7.45
2023-05-22T08:53:13.498Z,7.47
2023-05-22T08:55:42.497Z,10.20
2023-05-22T08:58:12.314Z,6.50
2023-05-22T09:00:40.488Z,11.55
2023-05-22T09:03:10.196Z,8.32
2023-05-22T09:05:39.270Z,9.52
2023-05-22T09:08:19.691Z,7.78
2023-05-22T09:10:48.354Z,8.07
2023-05-22T09:13:33.937Z,8.50
2023-05-22T09:16:12.607Z,7.15
2023-05-22T09:18:41.490Z,9.73
2023-05-22T09:21:21.414Z,10.25
2023-05-22T09:24:02.807Z,11.40
2023-05-22T09:26:30.454Z,5.55
2023-05-22T09:29:00.437Z,7.82
2023-05-22T09:31:31.691Z,6.03
2023-05-22T09:33:59.833Z,5.00
2023-05-22T09:36:33.820Z,8.68
2023-05-22T09:39:01.959Z,7.43
2023-05-22T09:41:32.334Z,8.25
2023-05-22T09:44:01.789Z,5.60
2023-05-22T09:46:29.948Z,7.40
2023-05-22T09:48:57.380Z,12.85
2023-05-22T09:51:27.650Z,6.85
2023-05-22T09:54:04.156Z,8.05
2023-05-22T09:56:39.701Z,9.45
2023-05-22T09:59:14.471Z,8.15
2023-05-22T10:01:42.634Z,8.10
2023-05-22T10:04:15.976Z,7.32
2023-05-22T10:06:50.957Z,8.45
2023-05-22T10:09:21.430Z,6.97
2023-05-22T10:11:53.417Z,5.63
2023-05-22T10:14:21.675Z,7.68
2023-05-22T10:16:49.462Z,11.05
2023-05-22T10:19:17.932Z,11.25
2023-05-22T10:21:47.318Z,6.68
2023-05-22T10:24:15.379Z,8.55
2023-05-22T10:26:44.175Z,10.75
2023-05-22T10:29:22.270Z,7.13
2023-05-22T10:32:02.956Z,6.50
2023-05-22T10:34:53.675Z,8.82
2023-05-22T10:37:27.021Z,10.77
2023-05-22T10:40:11.947Z,9.52
2023-05-22T10:42:39.675Z,7.20
2023-05-22T10:45:08.108Z,10.25
2023-05-22T10:47:35.893Z,8.77
2023-05-22T10:50:11.500Z,10.18
2023-05-22T10:52:40.043Z,8.25
2023-05-22T10:55:09.212Z,6.63
2023-05-22T10:57:40.229Z,7.80
2023-05-22T11:00:11.197Z,11.88
2023-05-22T11:02:40.268Z,7.35
2023-05-22T11:05:22.323Z,8.48
2023-05-22T11:10:27.140Z,10.23
2023-05-22T11:13:12.098Z,12.43
2023-05-22T11:15:45.744Z,9.95
2023-05-22T11:18:17.127Z,10.02
2023-05-22T11:20:47.146Z,14.32
2023-05-22T11:23:15.297Z,7.60
2023-05-22T11:25:42.892Z,9.52
2023-05-22T11:28:11.799Z,9.60
2023-05-22T11:30:40.250Z,10.48
2023-05-22T11:33:08.120Z,9.82
2023-05-22T11:35:36.056Z,7.38
2023-05-22T11:38:07.287Z,11.57
2023-05-22T11:40:34.863Z,8.50
2023-05-22T11:43:04.050Z,13.65
2023-05-22T11:45:31.537Z,7.28
2023-05-22T11:47:59.091Z,12.65
2023-05-22T11:50:41.057Z,10.02
2023-05-22T11:53:09.730Z,14.10
2023-05-22T11:55:37.171Z,9.82
2023-05-22T11:58:04.626Z,7.32
2023-05-22T12:00:33.439Z,8.45
2023-05-22T12:03:01.174Z,7.72
2023-05-22T12:05:32.349Z,7.35
2023-05-22T12:07:59.926Z,17.13
2023-05-22T12:10:27.320Z,7.22
2023-05-22T12:12:55.137Z,8.32
2023-05-22T12:15:24.207Z,10.20
2023-05-22T12:17:55.998Z,8.10
2023-05-22T12:20:28.730Z,9.15
2023-05-22T12:22:56.658Z,11.25
2023-05-22T12:25:24.941Z,7.85
2023-05-22T12:27:52.673Z,9.50
2023-05-22T12:30:20.248Z,8.68
2023-05-22T12:32:50.171Z,10.20
2023-05-22T12:35:18.295Z,10.25
2023-05-22T12:37:50.220Z,7.45
2023-05-22T12:40:18.095Z,12.52
2023-05-22T12:42:45.861Z,8.23
2023-05-22T12:45:13.877Z,11.90
2023-05-22T12:47:41.462Z,9.15
2023-05-22T12:50:09.409Z,13.35
2023-05-22T12:52:36.925Z,10.70
2023-05-22T12:55:04.709Z,10.30
2023-05-22T12:57:32.180Z,10.65
2023-05-22T12:59:59.564Z,6.97
2023-05-22T13:02:27.895Z,8.52
2023-05-22T13:04:55.505Z,10.45
2023-05-22T13:07:22.974Z,8.02
2023-05-22T13:09:50.431Z,9.77
2023-05-22T13:12:19.252Z,13.27
2023-05-22T13:14:46.835Z,13.93
2023-05-22T13:17:14.275Z,7.25
2023-05-22T13:19:42.514Z,8.63
2023-05-22T13:22:10.125Z,8.45
2023-05-22T13:24:37.575Z,7.20
2023-05-22T13:27:05.117Z,7.95
2023-05-22T13:29:33.552Z,10.60
2023-05-22T13:32:01.639Z,7.57
2023-05-22T13:34:30.154Z,12.95
2023-05-22T13:36:57.799Z,8.70
2023-05-22T13:39:25.349Z,8.90
2023-05-22T13:41:53.169Z,10.38
2023-05-22T13:44:21.323Z,6.55
2023-05-22T13:46:48.931Z,8.15
2023-05-22T13:49:16.480Z,6.18
2023-05-22T13:51:43.989Z,7.03
2023-05-22T13:54:11.860Z,8.90
2023-05-22T13:56:39.280Z,9.90
2023-05-22T13:59:09.155Z,9.77
2023-05-22T14:01:37.008Z,10.07
2023-05-22T14:04:05.234Z,10.40
2023-05-22T14:06:33.133Z,8.20
2023-05-22T14:09:00.599Z,10.30
2023-05-22T14:11:28.282Z,10.23
2023-05-22T14:13:58.106Z,6.80
2023-05-22T14:16:25.636Z,15.32
2023-05-22T14:18:56.111Z,8.05
2023-05-22T14:21:33.271Z,11.20
2023-05-22T14:24:02.537Z,12.18
2023-05-22T14:26:29.992Z,9.27
2023-05-22T14:28:57.893Z,10.32
2023-05-22T14:31:28.054Z,8.25
2023-05-22T14:33:55.731Z,8.77
2023-05-22T14:36:23.200Z,6.55
2023-05-22T14:38:50.766Z,15.35
2023-05-22T14:41:18.172Z,10.48
2023-05-22T14:43:45.703Z,7.78
2023-05-22T14:46:13.214Z,10.23
2023-05-22T14:48:40.725Z,8.30
2023-05-22T14:51:08.162Z,8.20
2023-05-22T14:53:35.633Z,8.35
2023-05-22T14:56:03.356Z,11.18
2023-05-22T14:58:31.334Z,7.40
2023-05-22T15:00:58.818Z,6.85
2023-05-22T15:03:26.252Z,12.00
2023-05-22T15:05:57.917Z,7.80
2023-05-22T15:08:25.620Z,9.00
2023-05-22T15:10:53.026Z,7.47
2023-05-22T15:13:23.214Z,11.55
2023-05-22T15:15:50.787Z,6.07
2023-05-22T15:18:19.820Z,8.07
2023-05-22T15:20:47.224Z,8.57
2023-05-22T15:23:14.705Z,11.88
2023-05-22T15:25:43.036Z,10.63
2023-05-22T15:28:10.513Z,9.32
2023-05-22T15:30:39.189Z,7.90
2023-05-22T15:33:07.149Z,12.05
2023-05-22T15:35:34.601Z,6.75
2023-05-22T15:38:03.190Z,8.60
2023-05-22T15:40:30.992Z,9.07
2023-05-22T15:43:01.634Z,11.43
2023-05-22T15:45:29.104Z,7.32
2023-05-22T15:47:56.862Z,13.00
2023-05-22T15:50:24.343Z,6.40
2023-05-22T15:52:56.421Z,7.28
2023-05-22T15:55:31.568Z,11.00
2023-05-22T15:57:59.744Z,7.97
2023-05-22T16:00:27.790Z,10.88
2023-05-22T16:02:55.292Z,9.85
2023-05-22T16:05:22.860Z,9.13
2023-05-22T16:07:50.364Z,8.07
2023-05-22T16:10:18.129Z,10.75
2023-05-22T16:12:45.637Z,10.35
2023-05-22T16:15:13.935Z,9.35
2023-05-22T16:17:41.395Z,9.60
2023-05-22T16:20:09.453Z,12.77
2023-05-22T16:22:47.986Z,9.98
2023-05-22T16:25:18.634Z,8.63
2023-05-22T16:27:46.153Z,8.40
2023-05-22T16:30:16.726Z,11.68
2023-05-22T16:32:48.403Z,11.27
2023-05-22T16:35:16.723Z,8.10
2023-05-22T16:37:44.177Z,10.43
2023-05-22T16:40:11.909Z,10.30
2023-05-22T16:42:39.328Z,11.55
2023-05-22T16:45:07.514Z,10.25
2023-05-22T16:47:37.237Z,9.48
2023-05-22T16:50:05.255Z,8.27
2023-05-22T16:52:32.699Z,10.48
2023-05-22T16:55:00.242Z,9.57
2023-05-22T16:57:28.261Z,7.80
2023-05-22T16:59:57.732Z,9.98
2023-05-22T17:02:25.564Z,9.85
2023-05-22T17:04:54.466Z,11.52
2023-05-22T17:07:21.848Z,9.55
2023-05-22T17:09:49.321Z,8.95
2023-05-22T17:12:16.754Z,13.32
2023-05-22T17:14:44.234Z,14.38
2023-05-22T17:17:11.647Z,14.50
2023-05-22T17:19:39.151Z,12.43
2023-05-22T17:22:06.696Z,9.43
2023-05-22T17:24:34.140Z,9.57
2023-05-22T17:27:03.420Z,7.72
2023-05-22T17:29:30.843Z,8.13
2023-05-22T17:31:58.314Z,10.30
2023-05-22T17:34:25.833Z,12.10
2023-05-22T17:36:53.302Z,11.90
2023-05-22T17:39:20.724Z,11.00
2023-05-22T17:41:48.168Z,10.57
2023-05-22T17:44:17.910Z,15.95
2023-05-22T17:46:46.011Z,8.68
2023-05-22T17:49:13.578Z,12.52
2023-05-22T17:51:44.017Z,13.38
2023-05-22T17:54:11.528Z,11.15
2023-05-22T17:56:38.939Z,9.25
2023-05-22T17:59:07.801Z,11.88
2023-05-22T18:01:35.627Z,16.90
2023-05-22T18:04:04.821Z,17.67
2023-05-22T18:06:32.640Z,16.90
2023-05-22T18:09:02.209Z,10.43
2023-05-22T18:11:29.613Z,11.18
2023-05-22T18:13:57.022Z,8.60
2023-05-22T18:16:24.665Z,17.75
2023-05-22T18:18:52.121Z,14.63
2023-05-22T18:21:19.591Z,9.98
2023-05-22T18:23:46.996Z,13.68
2023-05-22T18:26:14.496Z,15.18
2023-05-22T18:28:42.480Z,12.07
2023-05-22T18:31:09.970Z,14.52
2023-05-22T18:33:39.251Z,12.98
2023-05-22T18:36:06.777Z,10.57
2023-05-22T18:38:34.175Z,11.68
2023-05-22T18:41:01.624Z,12.65
2023-05-22T18:43:29.317Z,11.25
2023-05-22T18:46:00.340Z,9.63
2023-05-22T18:48:28.329Z,15.15
2023-05-22T18:50:57.725Z,14.65
2023-05-22T18:53:26.128Z,10.52
2023-05-22T18:55:54.142Z,13.85
2023-05-22T18:58:21.991Z,13.05
2023-05-22T19:00:49.728Z,12.35
2023-05-22T19:03:17.245Z,10.32
2023-05-22T19:05:44.663Z,9.73
2023-05-22T19:08:12.053Z,13.90
2023-05-22T19:10:39.727Z,13.93
2023-05-22T19:13:08.108Z,15.25
2023-05-22T19:15:35.872Z,12.43
2023-05-22T19:18:03.505Z,13.40
2023-05-22T19:20:31.047Z,17.98
2023-05-22T19:22:58.507Z,13.57
2023-05-22T19:25:26.129Z,16.45
2023-05-22T19:27:53.622Z,14.43
2023-05-22T19:30:21.953Z,18.67
2023-05-22T19:32:49.913Z,12.13
2023-05-22T19:35:17.660Z,14.23
2023-05-22T19:37:45.991Z,11.63
2023-05-22T19:40:13.749Z,10.30
2023-05-22T19:42:42.160Z,10.32
2023-05-22T19:45:10.620Z,22.48
2023-05-22T19:47:38.038Z,10.93
2023-05-22T19:50:06.150Z,12.43
2023-05-22T19:52:33.628Z,12.68
2023-05-22T19:55:01.288Z,15.27
2023-05-22T19:57:29.457Z,16.50
2023-05-22T19:59:56.893Z,13.98
2023-05-22T20:02:24.411Z,16.92
2023-05-22T20:04:52.053Z,14.15
2023-05-22T20:07:19.423Z,17.92
2023-05-22T20:09:47.077Z,20.05
2023-05-22T20:12:14.871Z,14.40
2023-05-22T20:14:42.447Z,15.73
2023-05-22T20:17:09.866Z,16.23
2023-05-22T20:19:37.367Z,17.75
2023-05-22T20:22:05.585Z,16.75
2023-05-22T20:24:35.591Z,18.52
2023-05-22T20:27:05.196Z,19.45
2023-05-22T20:29:33.179Z,20.77
2023-05-22T20:32:00.834Z,15.85
2023-05-22T20:34:28.585Z,13.40
2023-05-22T20:36:56.014Z,13.55
2023-05-22T20:39:23.524Z,18.33
2023-05-22T20:41:50.971Z,16.52
2023-05-22T20:44:19.072Z,18.55
2023-05-22T20:46:46.462Z,15.88
2023-05-22T20:49:13.995Z,17.90
2023-05-22T20:51:41.444Z,14.10
2023-05-22T20:54:08.896Z,15.35
2023-05-22T20:56:37.703Z,15.10
2023-05-22T20:59:05.283Z,15.00
2023-05-22T21:01:32.776Z,14.65
2023-05-22T21:04:00.269Z,15.20
2023-05-22T21:06:27.852Z,18.55
2023-05-22T21:08:59.709Z,18.83
2023-05-22T21:11:27.733Z,13.27
2023-05-22T21:13:55.490Z,14.57
2023-05-22T21:16:23.023Z,16.77
2023-05-22T21:18:50.513Z,15.43
2023-05-22T21:21:20.383Z,13.35
2023-05-22T21:23:51.417Z,13.68
2023-05-22T21:26:22.213Z,15.48
2023-05-22T21:28:50.124Z,16.25
2023-05-22T21:31:17.552Z,14.45
2023-05-22T21:33:45.624Z,14.00
2023-05-22T21:36:13.061Z,13.63
2023-05-22T21:38:40.529Z,17.05
2023-05-22T21:41:07.975Z,12.52
2023-05-22T21:43:35.365Z,16.35
2023-05-22T21:46:02.796Z,17.13
2023-05-22T21:48:30.216Z,13.80
2023-05-22T21:50:58.055Z,16.73
2023-05-22T21:53:25.465Z,17.05
2023-05-22T21:55:52.940Z,13.77
2023-05-22T21:58:20.508Z,15.32
2023-05-22T22:00:47.948Z,19.52
2023-05-22T22:03:15.767Z,12.93
2023-05-22T22:05:43.290Z,16.65
2023-05-22T22:08:10.796Z,15.10
2023-05-22T22:10:38.369Z,12.75
2023-05-22T22:13:06.226Z,14.32
2023-05-22T22:15:33.881Z,18.35
2023-05-22T22:18:02.401Z,14.85
2023-05-22T22:20:44.210Z,17.92
2023-05-22T22:23:12.850Z,13.27
2023-05-22T22:25:40.286Z,13.32
2023-05-22T22:28:07.785Z,14.13
2023-05-22T22:30:35.649Z,16.77
2023-05-22T22:33:03.221Z,14.32
2023-05-22T22:35:30.740Z,13.60
2023-05-22T22:37:58.487Z,15.35
2023-05-22T22:40:38.075Z,16.73
2023-05-22T22:43:05.546Z,13.07
2023-05-22T22:45:32.945Z,19.38
2023-05-22T22:48:03.529Z,13.45
2023-05-22T22:50:32.202Z,14.73
2023-05-22T22:52:59.624Z,13.82
2023-05-22T22:55:27.185Z,17.08
2023-05-22T22:57:54.897Z,13.20
2023-05-22T23:00:22.578Z,13.70
2023-05-22T23:02:50.040Z,14.05
2023-05-22T23:05:20.335Z,16.05
2023-05-22T23:07:48.419Z,15.18
2023-05-22T23:10:16.129Z,13.75
2023-05-22T23:12:43.688Z,13.52
2023-05-22T23:15:13.294Z,13.88
2023-05-22T23:17:41.488Z,11.27
2023-05-22T23:20:09.756Z,16.20
2023-05-22T23:22:37.395Z,13.40
2023-05-22T23:25:05.296Z,11.63
2023-05-22T23:27:32.699Z,17.55
2023-05-22T23:30:00.280Z,10.48
2023-05-22T23:32:28.893Z,12.05
2023-05-22T23:34:56.704Z,11.80
2023-05-22T23:37:24.234Z,11.48
2023-05-22T23:39:51.636Z,18.60
2023-05-22T23:42:19.101Z,16.63
2023-05-22T23:44:46.491Z,17.67
2023-05-22T23:47:13.895Z,10.73
2023-05-22T23:49:41.280Z,14.30
2023-05-22T23:52:08.688Z,17.70
2023-05-22T23:54:36.160Z,12.60
2023-05-22T23:57:03.768Z,15.77
2023-05-22T23:59:31.138Z,13.10
